sensor_id;sensor_type;location;lat;lon;timestamp;P1;durP1;ratioP1;P2;durP2;ratioP2
1414;SDS011;702;49.466;11.086;2023-11-18T00:00:01;9.70;;;8.70;;
1414;SDS011;702;49.466;11.086;2023-11-18T00:02:36;10.33;;;8.47;;
1414;SDS011;702;49.466;11.086;2023-11-18T00:05:04;11.87;;;8.83;;
1414;SDS011;702;49.466;11.086;2023-11-18T00:07:32;11.70;;;9.10;;
1414;SDS011;702;49.466;11.086;2023-11-18T00:10:01;9.87;;;8.63;;
1414;SDS011;702;49.466;11.086;2023-11-18T00:12:29;11.20;;;9.00;;
1414;SDS011;702;49.466;11.086;2023-11-18T00:14:57;11.40;;;8.97;;
1414;SDS011;702;49.466;11.086;2023-11-18T00:17:24;11.13;;;8.10;;
1414;SDS011;702;49.466;11.086;2023-11-18T00:19:51;13.47;;;8.93;;
1414;SDS011;702;49.466;11.086;2023-11-18T00:22:19;15.03;;;9.50;;
1414;SDS011;702;49.466;11.086;2023-11-18T00:24:46;12.70;;;9.30;;
1414;SDS011;702;49.466;11.086;2023-11-18T00:27:15;11.60;;;8.27;;
1414;SDS011;702;49.466;11.086;2023-11-18T00:29:42;12.10;;;9.70;;
1414;SDS011;702;49.466;11.086;2023-11-18T00:32:09;10.57;;;9.40;;
1414;SDS011;702;49.466;11.086;2023-11-18T00:34:36;12.50;;;10.60;;
1414;SDS011;702;49.466;11.086;2023-11-18T00:37:04;13.93;;;11.13;;
1414;SDS011;702;49.466;11.086;2023-11-18T00:39:32;15.70;;;11.63;;
1414;SDS011;702;49.466;11.086;2023-11-18T00:42:00;14.97;;;10.77;;
1414;SDS011;702;49.466;11.086;2023-11-18T00:44:28;12.70;;;10.50;;
1414;SDS011;702;49.466;11.086;2023-11-18T00:46:55;13.10;;;9.77;;
1414;SDS011;702;49.466;11.086;2023-11-18T00:49:23;12.40;;;10.37;;
1414;SDS011;702;49.466;11.086;2023-11-18T00:51:51;13.83;;;10.80;;
1414;SDS011;702;49.466;11.086;2023-11-18T00:54:18;14.23;;;10.20;;
1414;SDS011;702;49.466;11.086;2023-11-18T00:56:45;12.93;;;9.70;;
1414;SDS011;702;49.466;11.086;2023-11-18T00:59:13;16.17;;;10.80;;
1414;SDS011;702;49.466;11.086;2023-11-18T01:01:42;14.90;;;11.70;;
1414;SDS011;702;49.466;11.086;2023-11-18T01:04:09;14.07;;;10.20;;
1414;SDS011;702;49.466;11.086;2023-11-18T01:06:36;15.23;;;11.53;;
1414;SDS011;702;49.466;11.086;2023-11-18T01:09:03;14.33;;;10.50;;
1414;SDS011;702;49.466;11.086;2023-11-18T01:11:32;11.80;;;9.63;;
1414;SDS011;702;49.466;11.086;2023-11-18T01:13:59;13.17;;;9.60;;
1414;SDS011;702;49.466;11.086;2023-11-18T01:16:27;10.20;;;8.87;;
1414;SDS011;702;49.466;11.086;2023-11-18T01:18:56;11.47;;;10.23;;
1414;SDS011;702;49.466;11.086;2023-11-18T01:21:23;13.43;;;10.37;;
1414;SDS011;702;49.466;11.086;2023-11-18T01:23:50;15.17;;;10.43;;
1414;SDS011;702;49.466;11.086;2023-11-18T01:26:17;13.33;;;10.73;;
1414;SDS011;702;49.466;11.086;2023-11-18T01:28:44;15.57;;;11.47;;
1414;SDS011;702;49.466;11.086;2023-11-18T01:31:12;12.00;;;10.27;;
1414;SDS011;702;49.466;11.086;2023-11-18T01:33:39;13.97;;;11.00;;
1414;SDS011;702;49.466;11.086;2023-11-18T01:36:08;13.63;;;11.17;;
1414;SDS011;702;49.466;11.086;2023-11-18T01:38:36;15.57;;;11.00;;
1414;SDS011;702;49.466;11.086;2023-11-18T01:41:04;14.47;;;11.20;;
1414;SDS011;702;49.466;11.086;2023-11-18T01:43:32;12.27;;;10.37;;
1414;SDS011;702;49.466;11.086;2023-11-18T01:45:59;14.27;;;10.70;;
1414;SDS011;702;49.466;11.086;2023-11-18T01:48:30;14.23;;;10.40;;
1414;SDS011;702;49.466;11.086;2023-11-18T01:50:59;13.40;;;10.97;;
1414;SDS011;702;49.466;11.086;2023-11-18T01:53:32;12.67;;;10.40;;
1414;SDS011;702;49.466;11.086;2023-11-18T01:56:04;15.37;;;11.67;;
1414;SDS011;702;49.466;11.086;2023-11-18T01:58:34;14.23;;;10.63;;
1414;SDS011;702;49.466;11.086;2023-11-18T02:01:03;17.37;;;10.97;;
1414;SDS011;702;49.466;11.086;2023-11-18T02:03:33;13.53;;;10.53;;
1414;SDS011;702;49.466;11.086;2023-11-18T02:06:00;13.77;;;10.93;;
1414;SDS011;702;49.466;11.086;2023-11-18T02:08:30;14.27;;;10.90;;
1414;SDS011;702;49.466;11.086;2023-11-18T02:11:01;13.10;;;10.53;;
1414;SDS011;702;49.466;11.086;2023-11-18T02:13:38;19.70;;;12.23;;
1414;SDS011;702;49.466;11.086;2023-11-18T02:16:11;15.03;;;13.17;;
1414;SDS011;702;49.466;11.086;2023-11-18T02:18:39;14.77;;;12.07;;
1414;SDS011;702;49.466;11.086;2023-11-18T02:21:09;11.80;;;10.57;;
1414;SDS011;702;49.466;11.086;2023-11-18T02:23:41;14.57;;;12.30;;
1414;SDS011;702;49.466;11.086;2023-11-18T02:26:11;19.87;;;12.13;;
1414;SDS011;702;49.466;11.086;2023-11-18T02:28:47;16.10;;;11.07;;
1414;SDS011;702;49.466;11.086;2023-11-18T02:31:16;12.13;;;10.83;;
1414;SDS011;702;49.466;11.086;2023-11-18T02:33:52;11.53;;;10.43;;
1414;SDS011;702;49.466;11.086;2023-11-18T02:36:31;15.93;;;10.83;;
1414;SDS011;702;49.466;11.086;2023-11-18T02:39:04;14.23;;;12.47;;
1414;SDS011;702;49.466;11.086;2023-11-18T02:41:38;12.57;;;10.33;;
1414;SDS011;702;49.466;11.086;2023-11-18T02:44:07;12.40;;;10.97;;
1414;SDS011;702;49.466;11.086;2023-11-18T02:46:36;15.03;;;11.23;;
1414;SDS011;702;49.466;11.086;2023-11-18T02:49:03;13.67;;;11.70;;
1414;SDS011;702;49.466;11.086;2023-11-18T02:51:31;15.23;;;12.10;;
1414;SDS011;702;49.466;11.086;2023-11-18T02:54:04;13.70;;;11.20;;
1414;SDS011;702;49.466;11.086;2023-11-18T02:56:35;14.93;;;10.93;;
1414;SDS011;702;49.466;11.086;2023-11-18T02:59:04;14.57;;;10.60;;
1414;SDS011;702;49.466;11.086;2023-11-18T03:01:31;13.73;;;11.53;;
1414;SDS011;702;49.466;11.086;2023-11-18T03:03:59;21.13;;;11.93;;
1414;SDS011;702;49.466;11.086;2023-11-18T03:06:26;11.40;;;10.30;;
1414;SDS011;702;49.466;11.086;2023-11-18T03:08:53;15.60;;;10.80;;
1414;SDS011;702;49.466;11.086;2023-11-18T03:11:20;14.90;;;10.30;;
1414;SDS011;702;49.466;11.086;2023-11-18T03:13:50;14.23;;;10.43;;
1414;SDS011;702;49.466;11.086;2023-11-18T03:16:18;16.23;;;10.67;;
1414;SDS011;702;49.466;11.086;2023-11-18T03:18:45;17.13;;;11.20;;
1414;SDS011;702;49.466;11.086;2023-11-18T03:21:13;13.23;;;10.90;;
1414;SDS011;702;49.466;11.086;2023-11-18T03:23:41;13.60;;;10.50;;
1414;SDS011;702;49.466;11.086;2023-11-18T03:26:10;12.80;;;10.60;;
1414;SDS011;702;49.466;11.086;2023-11-18T03:28:37;14.30;;;11.17;;
1414;SDS011;702;49.466;11.086;2023-11-18T03:31:06;15.83;;;10.53;;
1414;SDS011;702;49.466;11.086;2023-11-18T03:33:34;11.23;;;10.07;;
1414;SDS011;702;49.466;11.086;2023-11-18T03:36:02;14.57;;;10.40;;
1414;SDS011;702;49.466;11.086;2023-11-18T03:38:29;14.70;;;10.20;;
1414;SDS011;702;49.466;11.086;2023-11-18T03:40:57;12.33;;;10.50;;
1414;SDS011;702;49.466;11.086;2023-11-18T03:43:24;14.37;;;10.80;;
1414;SDS011;702;49.466;11.086;2023-11-18T03:45:51;13.37;;;10.40;;
1414;SDS011;702;49.466;11.086;2023-11-18T03:48:23;10.87;;;9.73;;
1414;SDS011;702;49.466;11.086;2023-11-18T03:50:50;13.07;;;10.53;;
1414;SDS011;702;49.466;11.086;2023-11-18T03:53:19;12.47;;;9.90;;
1414;SDS011;702;49.466;11.086;2023-11-18T03:55:46;11.90;;;9.63;;
1414;SDS011;702;49.466;11.086;2023-11-18T03:58:13;12.93;;;10.63;;
1414;SDS011;702;49.466;11.086;2023-11-18T04:00:41;15.00;;;10.50;;
1414;SDS011;702;49.466;11.086;2023-11-18T04:03:08;14.47;;;10.97;;
1414;SDS011;702;49.466;11.086;2023-11-18T04:05:37;12.20;;;10.83;;
1414;SDS011;702;49.466;11.086;2023-11-18T04:08:04;15.93;;;10.20;;
1414;SDS011;702;49.466;11.086;2023-11-18T04:10:32;14.67;;;9.67;;
1414;SDS011;702;49.466;11.086;2023-11-18T04:12:59;13.80;;;9.90;;
1414;SDS011;702;49.466;11.086;2023-11-18T04:15:26;11.20;;;9.77;;
1414;SDS011;702;49.466;11.086;2023-11-18T04:17:54;11.83;;;10.53;;
1414;SDS011;702;49.466;11.086;2023-11-18T04:20:21;12.93;;;10.93;;
1414;SDS011;702;49.466;11.086;2023-11-18T04:22:50;15.17;;;10.60;;
1414;SDS011;702;49.466;11.086;2023-11-18T04:25:17;11.70;;;10.50;;
1414;SDS011;702;49.466;11.086;2023-11-18T04:27:44;15.90;;;10.77;;
1414;SDS011;702;49.466;11.086;2023-11-18T04:30:12;10.73;;;8.90;;
1414;SDS011;702;49.466;11.086;2023-11-18T04:32:40;14.20;;;10.40;;
1414;SDS011;702;49.466;11.086;2023-11-18T04:35:08;10.13;;;9.17;;
1414;SDS011;702;49.466;11.086;2023-11-18T04:37:37;10.67;;;9.60;;
1414;SDS011;702;49.466;11.086;2023-11-18T04:40:09;11.80;;;9.17;;
1414;SDS011;702;49.466;11.086;2023-11-18T04:42:38;9.90;;;8.67;;
1414;SDS011;702;49.466;11.086;2023-11-18T04:45:06;11.20;;;8.83;;
1414;SDS011;702;49.466;11.086;2023-11-18T04:47:34;10.17;;;8.33;;
1414;SDS011;702;49.466;11.086;2023-11-18T04:50:04;11.27;;;8.50;;
1414;SDS011;702;49.466;11.086;2023-11-18T04:52:33;9.47;;;8.33;;
1414;SDS011;702;49.466;11.086;2023-11-18T04:55:01;11.07;;;9.07;;
1414;SDS011;702;49.466;11.086;2023-11-18T04:57:33;11.43;;;8.10;;
1414;SDS011;702;49.466;11.086;2023-11-18T05:00:00;12.03;;;8.70;;
1414;SDS011;702;49.466;11.086;2023-11-18T05:02:35;13.70;;;9.20;;
1414;SDS011;702;49.466;11.086;2023-11-18T05:05:02;9.70;;;8.57;;
1414;SDS011;702;49.466;11.086;2023-11-18T05:07:31;9.40;;;8.40;;
1414;SDS011;702;49.466;11.086;2023-11-18T05:10:00;10.00;;;8.70;;
1414;SDS011;702;49.466;11.086;2023-11-18T05:12:28;9.37;;;7.73;;
1414;SDS011;702;49.466;11.086;2023-11-18T05:14:57;10.87;;;9.07;;
1414;SDS011;702;49.466;11.086;2023-11-18T05:17:24;12.20;;;8.67;;
1414;SDS011;702;49.466;11.086;2023-11-18T05:19:51;12.73;;;9.67;;
1414;SDS011;702;49.466;11.086;2023-11-18T05:22:20;12.57;;;9.50;;
1414;SDS011;702;49.466;11.086;2023-11-18T05:24:47;14.00;;;9.70;;
1414;SDS011;702;49.466;11.086;2023-11-18T05:27:14;10.63;;;9.00;;
1414;SDS011;702;49.466;11.086;2023-11-18T05:29:42;12.17;;;9.17;;
1414;SDS011;702;49.466;11.086;2023-11-18T05:32:14;10.77;;;8.53;;
1414;SDS011;702;49.466;11.086;2023-11-18T05:34:42;14.67;;;9.33;;
1414;SDS011;702;49.466;11.086;2023-11-18T05:37:09;13.90;;;8.90;;
1414;SDS011;702;49.466;11.086;2023-11-18T05:39:36;11.50;;;8.73;;
1414;SDS011;702;49.466;11.086;2023-11-18T05:42:08;10.90;;;8.87;;
1414;SDS011;702;49.466;11.086;2023-11-18T05:44:35;11.50;;;9.40;;
1414;SDS011;702;49.466;11.086;2023-11-18T05:47:05;12.00;;;9.17;;
1414;SDS011;702;49.466;11.086;2023-11-18T05:49:33;11.40;;;9.03;;
1414;SDS011;702;49.466;11.086;2023-11-18T05:52:00;8.67;;;7.77;;
1414;SDS011;702;49.466;11.086;2023-11-18T05:54:28;11.20;;;9.13;;
1414;SDS011;702;49.466;11.086;2023-11-18T05:56:55;12.37;;;10.03;;
1414;SDS011;702;49.466;11.086;2023-11-18T05:59:24;11.30;;;9.40;;
1414;SDS011;702;49.466;11.086;2023-11-18T06:01:52;12.37;;;9.63;;
1414;SDS011;702;49.466;11.086;2023-11-18T06:04:22;9.20;;;7.87;;
1414;SDS011;702;49.466;11.086;2023-11-18T06:06:50;9.80;;;8.30;;
1414;SDS011;702;49.466;11.086;2023-11-18T06:09:17;11.53;;;8.43;;
1414;SDS011;702;49.466;11.086;2023-11-18T06:11:46;10.90;;;9.30;;
1414;SDS011;702;49.466;11.086;2023-11-18T06:14:15;9.50;;;8.50;;
1414;SDS011;702;49.466;11.086;2023-11-18T06:16:43;10.50;;;9.40;;
1414;SDS011;702;49.466;11.086;2023-11-18T06:19:10;12.07;;;9.70;;
1414;SDS011;702;49.466;11.086;2023-11-18T06:21:37;10.47;;;9.37;;
1414;SDS011;702;49.466;11.086;2023-11-18T06:24:07;11.87;;;9.30;;
1414;SDS011;702;49.466;11.086;2023-11-18T06:26:36;12.63;;;8.40;;
1414;SDS011;702;49.466;11.086;2023-11-18T06:29:04;11.57;;;8.60;;
1414;SDS011;702;49.466;11.086;2023-11-18T06:31:31;11.40;;;9.20;;
1414;SDS011;702;49.466;11.086;2023-11-18T06:33:58;10.50;;;8.40;;
1414;SDS011;702;49.466;11.086;2023-11-18T06:36:27;13.10;;;9.57;;
1414;SDS011;702;49.466;11.086;2023-11-18T06:38:56;13.07;;;10.10;;
1414;SDS011;702;49.466;11.086;2023-11-18T06:41:26;12.87;;;9.90;;
1414;SDS011;702;49.466;11.086;2023-11-18T06:43:58;16.07;;;9.70;;
1414;SDS011;702;49.466;11.086;2023-11-18T06:46:34;13.53;;;10.53;;
1414;SDS011;702;49.466;11.086;2023-11-18T06:49:05;12.83;;;10.53;;
1414;SDS011;702;49.466;11.086;2023-11-18T06:51:33;11.70;;;9.40;;
1414;SDS011;702;49.466;11.086;2023-11-18T06:54:03;12.53;;;9.90;;
1414;SDS011;702;49.466;11.086;2023-11-18T06:56:35;13.83;;;10.80;;
1414;SDS011;702;49.466;11.086;2023-11-18T06:59:04;15.43;;;11.27;;
1414;SDS011;702;49.466;11.086;2023-11-18T07:01:32;11.00;;;9.80;;
1414;SDS011;702;49.466;11.086;2023-11-18T07:03:59;15.90;;;11.40;;
1414;SDS011;702;49.466;11.086;2023-11-18T07:06:26;14.90;;;11.13;;
1414;SDS011;702;49.466;11.086;2023-11-18T07:08:54;15.73;;;12.00;;
1414;SDS011;702;49.466;11.086;2023-11-18T07:11:25;14.50;;;10.90;;
1414;SDS011;702;49.466;11.086;2023-11-18T07:13:54;14.37;;;10.30;;
1414;SDS011;702;49.466;11.086;2023-11-18T07:16:22;15.60;;;11.30;;
1414;SDS011;702;49.466;11.086;2023-11-18T07:18:50;24.27;;;12.40;;
1414;SDS011;702;49.466;11.086;2023-11-18T07:21:18;15.47;;;10.90;;
1414;SDS011;702;49.466;11.086;2023-11-18T07:23:45;18.50;;;11.63;;
1414;SDS011;702;49.466;11.086;2023-11-18T07:26:12;20.43;;;11.07;;
1414;SDS011;702;49.466;11.086;2023-11-18T07:28:40;22.80;;;10.83;;
1414;SDS011;702;49.466;11.086;2023-11-18T07:31:10;13.90;;;10.60;;
1414;SDS011;702;49.466;11.086;2023-11-18T07:33:39;16.10;;;10.47;;
1414;SDS011;702;49.466;11.086;2023-11-18T07:36:10;18.57;;;11.20;;
1414;SDS011;702;49.466;11.086;2023-11-18T07:38:37;16.20;;;10.60;;
1414;SDS011;702;49.466;11.086;2023-11-18T07:41:05;15.23;;;10.97;;
1414;SDS011;702;49.466;11.086;2023-11-18T07:43:33;15.87;;;10.73;;
1414;SDS011;702;49.466;11.086;2023-11-18T07:46:02;15.67;;;10.83;;
1414;SDS011;702;49.466;11.086;2023-11-18T07:48:34;16.17;;;10.67;;
1414;SDS011;702;49.466;11.086;2023-11-18T07:51:01;16.60;;;10.80;;
1414;SDS011;702;49.466;11.086;2023-11-18T07:53:29;15.93;;;11.47;;
1414;SDS011;702;49.466;11.086;2023-11-18T07:55:57;15.70;;;10.00;;
1414;SDS011;702;49.466;11.086;2023-11-18T07:58:24;15.17;;;10.40;;
1414;SDS011;702;49.466;11.086;2023-11-18T08:00:52;15.70;;;10.77;;
1414;SDS011;702;49.466;11.086;2023-11-18T08:03:20;16.83;;;10.63;;
1414;SDS011;702;49.466;11.086;2023-11-18T08:05:50;14.37;;;10.30;;
1414;SDS011;702;49.466;11.086;2023-11-18T08:08:17;12.70;;;8.77;;
1414;SDS011;702;49.466;11.086;2023-11-18T08:10:45;12.20;;;9.27;;
1414;SDS011;702;49.466;11.086;2023-11-18T08:13:14;10.83;;;8.17;;
1414;SDS011;702;49.466;11.086;2023-11-18T08:15:42;12.13;;;8.90;;
1414;SDS011;702;49.466;11.086;2023-11-18T08:18:10;13.07;;;9.60;;
1414;SDS011;702;49.466;11.086;2023-11-18T08:20:38;12.77;;;9.10;;
1414;SDS011;702;49.466;11.086;2023-11-18T08:23:08;12.23;;;9.50;;
1414;SDS011;702;49.466;11.086;2023-11-18T08:25:35;13.40;;;9.10;;
1414;SDS011;702;49.466;11.086;2023-11-18T08:28:03;12.47;;;9.83;;
1414;SDS011;702;49.466;11.086;2023-11-18T08:30:31;13.27;;;9.87;;
1414;SDS011;702;49.466;11.086;2023-11-18T08:32:59;14.87;;;10.50;;
1414;SDS011;702;49.466;11.086;2023-11-18T08:35:29;13.30;;;9.57;;
1414;SDS011;702;49.466;11.086;2023-11-18T08:37:56;12.80;;;9.43;;
1414;SDS011;702;49.466;11.086;2023-11-18T08:40:25;13.50;;;9.40;;
1414;SDS011;702;49.466;11.086;2023-11-18T08:42:53;14.37;;;9.67;;
1414;SDS011;702;49.466;11.086;2023-11-18T08:45:21;14.20;;;10.60;;
1414;SDS011;702;49.466;11.086;2023-11-18T08:47:53;13.27;;;8.87;;
1414;SDS011;702;49.466;11.086;2023-11-18T08:50:21;17.43;;;10.43;;
1414;SDS011;702;49.466;11.086;2023-11-18T08:52:50;12.73;;;8.63;;
1414;SDS011;702;49.466;11.086;2023-11-18T08:55:22;19.70;;;10.50;;
1414;SDS011;702;49.466;11.086;2023-11-18T08:58:04;14.30;;;10.47;;
1414;SDS011;702;49.466;11.086;2023-11-18T09:00:41;13.83;;;10.80;;
1414;SDS011;702;49.466;11.086;2023-11-18T09:03:13;13.03;;;9.60;;
1414;SDS011;702;49.466;11.086;2023-11-18T09:05:50;12.10;;;9.90;;
1414;SDS011;702;49.466;11.086;2023-11-18T09:08:24;12.33;;;10.10;;
1414;SDS011;702;49.466;11.086;2023-11-18T09:10:55;19.10;;;11.93;;
1414;SDS011;702;49.466;11.086;2023-11-18T09:13:24;14.60;;;9.73;;
1414;SDS011;702;49.466;11.086;2023-11-18T09:15:54;16.60;;;10.90;;
1414;SDS011;702;49.466;11.086;2023-11-18T09:18:22;15.70;;;10.50;;
1414;SDS011;702;49.466;11.086;2023-11-18T09:20:51;15.90;;;11.20;;
1414;SDS011;702;49.466;11.086;2023-11-18T09:23:20;14.20;;;10.63;;
1414;SDS011;702;49.466;11.086;2023-11-18T09:25:51;16.27;;;10.97;;
1414;SDS011;702;49.466;11.086;2023-11-18T09:28:20;12.90;;;10.60;;
1414;SDS011;702;49.466;11.086;2023-11-18T09:30:50;15.20;;;10.70;;
1414;SDS011;702;49.466;11.086;2023-11-18T09:33:23;16.33;;;10.90;;
1414;SDS011;702;49.466;11.086;2023-11-18T09:35:54;13.40;;;10.90;;
1414;SDS011;702;49.466;11.086;2023-11-18T09:38:28;15.17;;;10.70;;
1414;SDS011;702;49.466;11.086;2023-11-18T09:40:56;16.40;;;11.40;;
1414;SDS011;702;49.466;11.086;2023-11-18T09:43:29;17.03;;;11.53;;
1414;SDS011;702;49.466;11.086;2023-11-18T09:46:03;12.77;;;10.40;;
1414;SDS011;702;49.466;11.086;2023-11-18T09:48:38;18.47;;;11.90;;
1414;SDS011;702;49.466;11.086;2023-11-18T09:51:19;18.77;;;11.00;;
1414;SDS011;702;49.466;11.086;2023-11-18T09:53:50;18.10;;;11.40;;
1414;SDS011;702;49.466;11.086;2023-11-18T09:56:22;14.90;;;10.87;;
1414;SDS011;702;49.466;11.086;2023-11-18T09:59:07;14.90;;;11.40;;
1414;SDS011;702;49.466;11.086;2023-11-18T10:01:44;17.17;;;12.00;;
1414;SDS011;702;49.466;11.086;2023-11-18T10:04:19;15.50;;;12.10;;
1414;SDS011;702;49.466;11.086;2023-11-18T10:06:47;16.63;;;12.40;;
1414;SDS011;702;49.466;11.086;2023-11-18T10:09:15;16.23;;;12.60;;
1414;SDS011;702;49.466;11.086;2023-11-18T10:11:44;16.80;;;11.97;;
1414;SDS011;702;49.466;11.086;2023-11-18T10:14:15;18.77;;;13.07;;
1414;SDS011;702;49.466;11.086;2023-11-18T10:16:43;19.03;;;13.07;;
1414;SDS011;702;49.466;11.086;2023-11-18T10:19:12;16.90;;;12.10;;
1414;SDS011;702;49.466;11.086;2023-11-18T10:21:39;14.80;;;11.73;;
1414;SDS011;702;49.466;11.086;2023-11-18T10:24:08;17.80;;;12.97;;
1414;SDS011;702;49.466;11.086;2023-11-18T10:26:40;17.10;;;11.90;;
1414;SDS011;702;49.466;11.086;2023-11-18T10:29:10;17.70;;;12.97;;
1414;SDS011;702;49.466;11.086;2023-11-18T10:31:40;15.90;;;11.77;;
1414;SDS011;702;49.466;11.086;2023-11-18T10:34:10;19.70;;;13.00;;
1414;SDS011;702;49.466;11.086;2023-11-18T10:36:40;16.13;;;11.83;;
1414;SDS011;702;49.466;11.086;2023-11-18T10:39:10;14.90;;;12.17;;
1414;SDS011;702;49.466;11.086;2023-11-18T10:41:42;19.90;;;13.00;;
1414;SDS011;702;49.466;11.086;2023-11-18T10:44:13;16.97;;;12.63;;
1414;SDS011;702;49.466;11.086;2023-11-18T10:46:42;15.97;;;12.73;;
1414;SDS011;702;49.466;11.086;2023-11-18T10:49:20;16.93;;;12.37;;
1414;SDS011;702;49.466;11.086;2023-11-18T10:51:47;18.90;;;13.90;;
1414;SDS011;702;49.466;11.086;2023-11-18T10:54:17;16.80;;;12.57;;
1414;SDS011;702;49.466;11.086;2023-11-18T10:56:46;16.23;;;13.90;;
1414;SDS011;702;49.466;11.086;2023-11-18T10:59:15;16.53;;;13.80;;
1414;SDS011;702;49.466;11.086;2023-11-18T11:01:45;16.20;;;13.07;;
1414;SDS011;702;49.466;11.086;2023-11-18T11:04:14;16.00;;;13.20;;
1414;SDS011;702;49.466;11.086;2023-11-18T11:06:42;15.03;;;13.00;;
1414;SDS011;702;49.466;11.086;2023-11-18T11:09:17;16.60;;;13.87;;
1414;SDS011;702;49.466;11.086;2023-11-18T11:11:50;15.63;;;13.67;;
1414;SDS011;702;49.466;11.086;2023-11-18T11:14:22;13.93;;;12.53;;
1414;SDS011;702;49.466;11.086;2023-11-18T11:17:00;16.17;;;12.60;;
1414;SDS011;702;49.466;11.086;2023-11-18T11:19:38;17.07;;;12.83;;
1414;SDS011;702;49.466;11.086;2023-11-18T11:22:21;15.13;;;12.43;;
1414;SDS011;702;49.466;11.086;2023-11-18T11:24:54;14.30;;;12.43;;
1414;SDS011;702;49.466;11.086;2023-11-18T11:27:38;12.47;;;11.20;;
1414;SDS011;702;49.466;11.086;2023-11-18T11:30:20;15.93;;;10.73;;
1414;SDS011;702;49.466;11.086;2023-11-18T11:32:52;14.30;;;11.77;;
1414;SDS011;702;49.466;11.086;2023-11-18T11:35:27;16.60;;;12.43;;
1414;SDS011;702;49.466;11.086;2023-11-18T11:38:00;13.37;;;11.90;;
1414;SDS011;702;49.466;11.086;2023-11-18T11:40:35;14.50;;;12.20;;
1414;SDS011;702;49.466;11.086;2023-11-18T11:43:04;13.70;;;10.70;;
1414;SDS011;702;49.466;11.086;2023-11-18T11:45:35;14.80;;;13.20;;
1414;SDS011;702;49.466;11.086;2023-11-18T11:48:06;16.73;;;11.90;;
1414;SDS011;702;49.466;11.086;2023-11-18T11:50:48;12.27;;;10.97;;
1414;SDS011;702;49.466;11.086;2023-11-18T11:53:40;12.60;;;11.20;;
1414;SDS011;702;49.466;11.086;2023-11-18T11:56:13;12.80;;;11.50;;
1414;SDS011;702;49.466;11.086;2023-11-18T11:58:46;13.30;;;11.43;;
1414;SDS011;702;49.466;11.086;2023-11-18T12:01:24;14.20;;;11.93;;
1414;SDS011;702;49.466;11.086;2023-11-18T12:03:59;15.00;;;11.30;;
1414;SDS011;702;49.466;11.086;2023-11-18T12:06:32;13.20;;;11.87;;
1414;SDS011;702;49.466;11.086;2023-11-18T12:09:00;18.10;;;11.50;;
1414;SDS011;702;49.466;11.086;2023-11-18T12:11:32;14.70;;;11.53;;
1414;SDS011;702;49.466;11.086;2023-11-18T12:14:05;13.80;;;11.13;;
1414;SDS011;702;49.466;11.086;2023-11-18T12:16:58;13.10;;;11.70;;
1414;SDS011;702;49.466;11.086;2023-11-18T12:19:35;14.07;;;12.53;;
1414;SDS011;702;49.466;11.086;2023-11-18T12:22:12;13.03;;;11.63;;
1414;SDS011;702;49.466;11.086;2023-11-18T12:24:45;13.73;;;11.57;;
1414;SDS011;702;49.466;11.086;2023-11-18T12:33:16;12.53;;;11.20;;
1414;SDS011;702;49.466;11.086;2023-11-18T12:42:56;13.00;;;11.23;;
1414;SDS011;702;49.466;11.086;2023-11-18T12:45:37;13.00;;;10.90;;
1414;SDS011;702;49.466;11.086;2023-11-18T12:48:56;12.97;;;11.40;;
1414;SDS011;702;49.466;11.086;2023-11-18T12:51:26;12.03;;;10.37;;
1414;SDS011;702;49.466;11.086;2023-11-18T12:53:56;9.03;;;7.77;;
1414;SDS011;702;49.466;11.086;2023-11-18T12:56:25;9.50;;;8.50;;
1414;SDS011;702;49.466;11.086;2023-11-18T12:58:53;9.80;;;8.63;;
1414;SDS011;702;49.466;11.086;2023-11-18T13:01:21;9.17;;;8.20;;
1414;SDS011;702;49.466;11.086;2023-11-18T13:03:48;7.93;;;7.13;;
1414;SDS011;702;49.466;11.086;2023-11-18T13:06:18;8.10;;;7.27;;
1414;SDS011;702;49.466;11.086;2023-11-18T13:08:48;8.00;;;7.17;;
1414;SDS011;702;49.466;11.086;2023-11-18T13:11:16;8.50;;;7.70;;
1414;SDS011;702;49.466;11.086;2023-11-18T13:13:45;8.00;;;7.20;;
1414;SDS011;702;49.466;11.086;2023-11-18T13:16:12;7.50;;;6.70;;
1414;SDS011;702;49.466;11.086;2023-11-18T13:18:43;7.20;;;6.53;;
1414;SDS011;702;49.466;11.086;2023-11-18T13:21:14;6.40;;;5.80;;
1414;SDS011;702;49.466;11.086;2023-11-18T13:23:45;8.60;;;6.90;;
1414;SDS011;702;49.466;11.086;2023-11-18T13:26:15;7.87;;;6.70;;
1414;SDS011;702;49.466;11.086;2023-11-18T13:28:42;8.50;;;6.57;;
1414;SDS011;702;49.466;11.086;2023-11-18T13:31:10;7.17;;;6.50;;
1414;SDS011;702;49.466;11.086;2023-11-18T13:33:42;7.87;;;6.83;;
1414;SDS011;702;49.466;11.086;2023-11-18T13:36:10;7.43;;;5.77;;
1414;SDS011;702;49.466;11.086;2023-11-18T13:38:38;6.83;;;5.40;;
1414;SDS011;702;49.466;11.086;2023-11-18T13:41:06;6.70;;;6.00;;
1414;SDS011;702;49.466;11.086;2023-11-18T13:43:42;7.77;;;6.83;;
1414;SDS011;702;49.466;11.086;2023-11-18T13:46:11;4.77;;;4.30;;
1414;SDS011;702;49.466;11.086;2023-11-18T13:48:39;6.53;;;5.83;;
1414;SDS011;702;49.466;11.086;2023-11-18T13:51:08;5.53;;;4.93;;
1414;SDS011;702;49.466;11.086;2023-11-18T13:53:39;5.63;;;5.00;;
1414;SDS011;702;49.466;11.086;2023-11-18T13:56:09;5.40;;;4.60;;
1414;SDS011;702;49.466;11.086;2023-11-18T13:58:37;7.20;;;5.80;;
1414;SDS011;702;49.466;11.086;2023-11-18T14:01:06;7.00;;;5.37;;
1414;SDS011;702;49.466;11.086;2023-11-18T14:03:34;5.90;;;5.30;;
1414;SDS011;702;49.466;11.086;2023-11-18T14:06:05;7.73;;;5.10;;
1414;SDS011;702;49.466;11.086;2023-11-18T14:08:35;6.37;;;5.10;;
1414;SDS011;702;49.466;11.086;2023-11-18T14:11:03;6.00;;;4.50;;
1414;SDS011;702;49.466;11.086;2023-11-18T14:13:31;9.07;;;5.80;;
1414;SDS011;702;49.466;11.086;2023-11-18T14:16:00;4.60;;;4.20;;
1414;SDS011;702;49.466;11.086;2023-11-18T14:18:28;6.60;;;5.10;;
1414;SDS011;702;49.466;11.086;2023-11-18T14:20:56;5.07;;;4.57;;
1414;SDS011;702;49.466;11.086;2023-11-18T14:23:26;7.60;;;5.20;;
1414;SDS011;702;49.466;11.086;2023-11-18T14:25:53;7.73;;;5.50;;
1414;SDS011;702;49.466;11.086;2023-11-18T14:28:20;5.83;;;5.23;;
1414;SDS011;702;49.466;11.086;2023-11-18T14:30:51;6.10;;;4.47;;
1414;SDS011;702;49.466;11.086;2023-11-18T14:33:19;7.33;;;5.67;;
1414;SDS011;702;49.466;11.086;2023-11-18T14:35:48;5.80;;;5.17;;
1414;SDS011;702;49.466;11.086;2023-11-18T14:38:15;6.27;;;5.30;;
1414;SDS011;702;49.466;11.086;2023-11-18T14:40:45;7.57;;;5.20;;
1414;SDS011;702;49.466;11.086;2023-11-18T14:43:13;7.70;;;5.80;;
1414;SDS011;702;49.466;11.086;2023-11-18T14:45:41;5.67;;;5.17;;
1414;SDS011;702;49.466;11.086;2023-11-18T14:48:08;7.00;;;5.07;;
1414;SDS011;702;49.466;11.086;2023-11-18T14:50:35;5.80;;;4.60;;
1414;SDS011;702;49.466;11.086;2023-11-18T14:53:06;5.50;;;4.83;;
1414;SDS011;702;49.466;11.086;2023-11-18T14:55:33;4.70;;;4.30;;
1414;SDS011;702;49.466;11.086;2023-11-18T14:58:02;4.40;;;4.00;;
1414;SDS011;702;49.466;11.086;2023-11-18T15:00:32;4.73;;;4.30;;
1414;SDS011;702;49.466;11.086;2023-11-18T15:03:00;6.20;;;5.20;;
1414;SDS011;702;49.466;11.086;2023-11-18T15:05:27;6.27;;;5.67;;
1414;SDS011;702;49.466;11.086;2023-11-18T15:07:56;5.00;;;4.50;;
1414;SDS011;702;49.466;11.086;2023-11-18T15:10:26;5.47;;;4.60;;
1414;SDS011;702;49.466;11.086;2023-11-18T15:12:54;5.40;;;4.90;;
1414;SDS011;702;49.466;11.086;2023-11-18T15:15:24;6.17;;;4.80;;
1414;SDS011;702;49.466;11.086;2023-11-18T15:17:57;5.77;;;4.73;;
1414;SDS011;702;49.466;11.086;2023-11-18T15:20:25;4.20;;;3.87;;
1414;SDS011;702;49.466;11.086;2023-11-18T15:22:52;5.80;;;4.77;;